sensor_id;sensor_type;location;lat;lon;timestamp;pressure;altitude;pressure_sealevel;temperature;humidity
61676;BME280;47574;52.090;5.244;2023-05-07T00:02:34;101619.0;;;20.93;58.07
61676;BME280;47574;52.090;5.244;2023-05-07T00:04:10;101617.0;;;20.72;58.26
61676;BME280;47574;52.090;5.244;2023-05-07T00:05:46;101616.0;;;20.74;58.43
61676;BME280;47574;52.090;5.244;2023-05-07T00:08:59;101619.0;;;20.72;58.68
61676;BME280;47574;52.090;5.244;2023-05-07T00:10:35;101623.0;;;20.78;58.42
61676;BME280;47574;52.090;5.244;2023-05-07T00:12:11;101624.0;;;20.77;58.39
61676;BME280;47574;52.090;5.244;2023-05-07T00:13:47;101624.0;;;20.72;58.76
61676;BME280;47574;52.090;5.244;2023-05-07T00:17:02;101625.0;;;20.76;58.43
61676;BME280;47574;52.090;5.244;2023-05-07T00:18:39;101628.0;;;20.69;58.42
61676;BME280;47574;52.090;5.244;2023-05-07T00:20:15;101623.0;;;20.77;58.31
61676;BME280;47574;52.090;5.244;2023-05-07T00:23:27;101617.0;;;20.79;58.39
61676;BME280;47574;52.090;5.244;2023-05-07T00:25:04;101617.0;;;20.81;58.2
61676;BME280;47574;52.090;5.244;2023-05-07T00:26:40;101616.0;;;20.78;58.38
61676;BME280;47574;52.090;5.244;2023-05-07T00:29:55;101614.0;;;20.68;58.86
61676;BME280;47574;52.090;5.244;2023-05-07T00:31:32;101616.0;;;20.67;58.87
61676;BME280;47574;52.090;5.244;2023-05-07T00:33:08;101614.0;;;20.67;58.71
61676;BME280;47574;52.090;5.244;2023-05-07T00:34:44;101615.0;;;20.69;58.61
61676;BME280;47574;52.090;5.244;2023-05-07T00:37:57;101615.0;;;20.73;58.83
61676;BME280;47574;52.090;5.244;2023-05-07T00:39:34;101615.0;;;20.9;58.05
61676;BME280;47574;52.090;5.244;2023-05-07T00:41:11;101611.0;;;20.61;58.66
61676;BME280;47574;52.090;5.244;2023-05-07T00:44:24;101608.0;;;20.66;58.51
61676;BME280;47574;52.090;5.244;2023-05-07T00:46:00;101611.0;;;20.68;58.43
61676;BME280;47574;52.090;5.244;2023-05-07T00:47:37;101608.0;;;20.77;58.43
61676;BME280;47574;52.090;5.244;2023-05-07T00:50:52;101609.0;;;20.8;57.97
61676;BME280;47574;52.090;5.244;2023-05-07T00:52:29;101607.0;;;20.82;58.13
61676;BME280;47574;52.090;5.244;2023-05-07T00:54:06;101607.0;;;20.6;58.54
61676;BME280;47574;52.090;5.244;2023-05-07T00:55:43;101605.0;;;20.62;58.52
61676;BME280;47574;52.090;5.244;2023-05-07T00:58:57;101603.0;;;20.57;58.53
61676;BME280;47574;52.090;5.244;2023-05-07T01:00:33;101603.0;;;20.78;58.28
61676;BME280;47574;52.090;5.244;2023-05-07T01:02:10;101600.0;;;20.8;58.09
61676;BME280;47574;52.090;5.244;2023-05-07T01:05:23;101602.0;;;20.7;58.08
61676;BME280;47574;52.090;5.244;2023-05-07T01:07:02;101605.0;;;20.75;58.32
61676;BME280;47574;52.090;5.244;2023-05-07T01:08:39;101603.0;;;20.85;58.19
61676;BME280;47574;52.090;5.244;2023-05-07T01:10:17;101602.0;;;20.63;58.72
61676;BME280;47574;52.090;5.244;2023-05-07T01:13:33;101602.0;;;20.78;58.11
61676;BME280;47574;52.090;5.244;2023-05-07T01:15:11;101606.0;;;20.8;57.82
61676;BME280;47574;52.090;5.244;2023-05-07T01:16:48;101602.0;;;20.79;57.87
61676;BME280;47574;52.090;5.244;2023-05-07T01:20:03;101605.0;;;20.87;57.61
61676;BME280;47574;52.090;5.244;2023-05-07T01:21:43;101606.0;;;20.86;57.86
61676;BME280;47574;52.090;5.244;2023-05-07T01:23:22;101603.0;;;20.75;57.9
61676;BME280;47574;52.090;5.244;2023-05-07T01:25:00;101605.0;;;20.66;58.19
61676;BME280;47574;52.090;5.244;2023-05-07T01:28:13;101606.0;;;20.78;57.91
61676;BME280;47574;52.090;5.244;2023-05-07T01:29:50;101606.0;;;20.85;57.72
61676;BME280;47574;52.090;5.244;2023-05-07T01:31:26;101610.0;;;20.73;57.81
61676;BME280;47574;52.090;5.244;2023-05-07T01:34:45;101609.0;;;20.73;58.09
61676;BME280;47574;52.090;5.244;2023-05-07T01:36:25;101608.0;;;20.65;58.12
61676;BME280;47574;52.090;5.244;2023-05-07T01:38:03;101609.0;;;20.69;58.34
61676;BME280;47574;52.090;5.244;2023-05-07T01:39:39;101612.0;;;20.75;58.28
61676;BME280;47574;52.090;5.244;2023-05-07T01:42:54;101609.0;;;20.72;58.47
61676;BME280;47574;52.090;5.244;2023-05-07T01:44:30;101610.0;;;20.84;58.47
61676;BME280;47574;52.090;5.244;2023-05-07T01:46:06;101615.0;;;20.81;58.79
61676;BME280;47574;52.090;5.244;2023-05-07T01:49:20;101613.0;;;20.83;59.17
61676;BME280;47574;52.090;5.244;2023-05-07T01:50:56;101610.0;;;20.92;59.0
61676;BME280;47574;52.090;5.244;2023-05-07T01:52:34;101610.0;;;20.8;58.86
61676;BME280;47574;52.090;5.244;2023-05-07T01:54:12;101607.0;;;20.6;59.63
61676;BME280;47574;52.090;5.244;2023-05-07T01:57:24;101610.0;;;20.68;59.26
61676;BME280;47574;52.090;5.244;2023-05-07T01:59:00;101607.0;;;20.65;59.0
61676;BME280;47574;52.090;5.244;2023-05-07T02:00:36;101605.0;;;20.67;59.1
61676;BME280;47574;52.090;5.244;2023-05-07T02:03:49;101599.0;;;20.63;59.49
61676;BME280;47574;52.090;5.244;2023-05-07T02:05:26;101603.0;;;20.68;59.39
61676;BME280;47574;52.090;5.244;2023-05-07T02:07:02;101602.0;;;20.76;59.4
61676;BME280;47574;52.090;5.244;2023-05-07T02:10:14;101603.0;;;20.63;59.53
61676;BME280;47574;52.090;5.244;2023-05-07T02:11:50;101602.0;;;20.68;59.46
61676;BME280;47574;52.090;5.244;2023-05-07T02:13:29;101597.0;;;20.65;59.53
61676;BME280;47574;52.090;5.244;2023-05-07T02:16:42;101594.0;;;20.69;59.1
61676;BME280;47574;52.090;5.244;2023-05-07T02:18:19;101587.0;;;20.65;59.37
61676;BME280;47574;52.090;5.244;2023-05-07T02:19:55;101589.0;;;20.77;59.11
61676;BME280;47574;52.090;5.244;2023-05-07T02:21:31;101583.0;;;20.64;59.19
61676;BME280;47574;52.090;5.244;2023-05-07T02:24:44;101585.0;;;20.62;59.23
61676;BME280;47574;52.090;5.244;2023-05-07T02:26:20;101585.0;;;20.62;59.41
61676;BME280;47574;52.090;5.244;2023-05-07T02:27:56;101586.0;;;20.73;58.99
61676;BME280;47574;52.090;5.244;2023-05-07T02:31:09;101589.0;;;20.65;59.06
61676;BME280;47574;52.090;5.244;2023-05-07T02:32:45;101590.0;;;20.6;59.17
61676;BME280;47574;52.090;5.244;2023-05-07T02:34:21;101587.0;;;20.62;59.06
61676;BME280;47574;52.090;5.244;2023-05-07T02:37:41;101583.0;;;20.75;58.73
61676;BME280;47574;52.090;5.244;2023-05-07T02:39:17;101583.0;;;20.56;59.11
61676;BME280;47574;52.090;5.244;2023-05-07T02:40:53;101583.0;;;20.65;58.7
61676;BME280;47574;52.090;5.244;2023-05-07T02:42:31;101591.0;;;20.6;59.06
61676;BME280;47574;52.090;5.244;2023-05-07T02:45:44;101594.0;;;20.64;59.03
61676;BME280;47574;52.090;5.244;2023-05-07T02:52:08;101599.0;;;20.73;59.11
61676;BME280;47574;52.090;5.244;2023-05-07T02:53:44;101601.0;;;20.69;58.89
61676;BME280;47574;52.090;5.244;2023-05-07T02:55:21;101600.0;;;20.52;59.04
61676;BME280;47574;52.090;5.244;2023-05-07T02:56:57;101598.0;;;20.49;59.51
61676;BME280;47574;52.090;5.244;2023-05-07T03:00:11;101598.0;;;20.5;59.43
61676;BME280;47574;52.090;5.244;2023-05-07T03:01:48;101596.0;;;20.6;59.09
61676;BME280;47574;52.090;5.244;2023-05-07T03:03:24;101591.0;;;20.45;59.07
61676;BME280;47574;52.090;5.244;2023-05-07T03:06:36;101595.0;;;20.39;59.39
61676;BME280;47574;52.090;5.244;2023-05-07T03:08:12;101588.0;;;20.49;59.34
61676;BME280;47574;52.090;5.244;2023-05-07T03:09:48;101583.0;;;20.43;59.36
61676;BME280;47574;52.090;5.244;2023-05-07T03:13:01;101583.0;;;20.45;59.31
61676;BME280;47574;52.090;5.244;2023-05-07T03:14:38;101580.0;;;20.49;59.24
61676;BME280;47574;52.090;5.244;2023-05-07T03:16:14;101583.0;;;20.36;59.58
61676;BME280;47574;52.090;5.244;2023-05-07T03:19:27;101580.0;;;20.43;59.58
61676;BME280;47574;52.090;5.244;2023-05-07T03:21:03;101587.0;;;20.3;59.84
61676;BME280;47574;52.090;5.244;2023-05-07T03:22:40;101582.0;;;20.45;59.69
61676;BME280;47574;52.090;5.244;2023-05-07T03:24:17;101588.0;;;20.34;59.54
61676;BME280;47574;52.090;5.244;2023-05-07T03:27:29;101589.0;;;20.3;60.12
61676;BME280;47574;52.090;5.244;2023-05-07T03:29:05;101587.0;;;20.36;59.68
61676;BME280;47574;52.090;5.244;2023-05-07T03:30:41;101580.0;;;20.41;59.48
61676;BME280;47574;52.090;5.244;2023-05-07T03:33:54;101590.0;;;20.32;59.83
61676;BME280;47574;52.090;5.244;2023-05-07T03:35:31;101588.0;;;20.28;59.66
61676;BME280;47574;52.090;5.244;2023-05-07T03:37:09;101588.0;;;20.34;59.3
61676;BME280;47574;52.090;5.244;2023-05-07T03:40:21;101583.0;;;20.18;59.71
61676;BME280;47574;52.090;5.244;2023-05-07T03:41:57;101585.0;;;20.22;59.82
61676;BME280;47574;52.090;5.244;2023-05-07T03:43:34;101589.0;;;20.2;59.68
61676;BME280;47574;52.090;5.244;2023-05-07T03:45:11;101586.0;;;20.2;59.68
61676;BME280;47574;52.090;5.244;2023-05-07T03:48:23;101586.0;;;20.37;59.3
61676;BME280;47574;52.090;5.244;2023-05-07T03:49:59;101589.0;;;20.2;59.91
61676;BME280;47574;52.090;5.244;2023-05-07T03:51:35;101587.0;;;20.18;60.18
61676;BME280;47574;52.090;5.244;2023-05-07T03:54:48;101586.0;;;20.27;59.85
61676;BME280;47574;52.090;5.244;2023-05-07T03:56:24;101585.0;;;20.25;60.0
61676;BME280;47574;52.090;5.244;2023-05-07T03:58:00;101588.0;;;20.13;60.51
61676;BME280;47574;52.090;5.244;2023-05-07T04:01:13;101588.0;;;20.18;60.53
61676;BME280;47574;52.090;5.244;2023-05-07T04:02:49;101589.0;;;20.29;59.98
61676;BME280;47574;52.090;5.244;2023-05-07T04:04:25;101595.0;;;20.23;59.9
61676;BME280;47574;52.090;5.244;2023-05-07T04:06:01;101594.0;;;20.2;59.96
61676;BME280;47574;52.090;5.244;2023-05-07T04:09:14;101598.0;;;20.11;60.37
61676;BME280;47574;52.090;5.244;2023-05-07T04:10:54;101595.0;;;20.16;60.13
61676;BME280;47574;52.090;5.244;2023-05-07T04:12:31;101597.0;;;20.25;60.19
61676;BME280;47574;52.090;5.244;2023-05-07T04:15:43;101598.0;;;20.16;60.12
61676;BME280;47574;52.090;5.244;2023-05-07T04:17:19;101598.0;;;20.2;59.95
61676;BME280;47574;52.090;5.244;2023-05-07T04:18:55;101598.0;;;20.16;59.81
61676;BME280;47574;52.090;5.244;2023-05-07T04:22:10;101599.0;;;20.14;60.17
61676;BME280;47574;52.090;5.244;2023-05-07T04:23:48;101602.0;;;20.2;60.26
61676;BME280;47574;52.090;5.244;2023-05-07T04:25:25;101599.0;;;20.18;59.76
61676;BME280;47574;52.090;5.244;2023-05-07T04:27:01;101601.0;;;20.16;59.92
61676;BME280;47574;52.090;5.244;2023-05-07T04:30:14;101603.0;;;20.28;59.66
61676;BME280;47574;52.090;5.244;2023-05-07T04:31:50;101609.0;;;20.25;59.97
61676;BME280;47574;52.090;5.244;2023-05-07T04:33:26;101611.0;;;20.41;59.74
61676;BME280;47574;52.090;5.244;2023-05-07T04:36:40;101611.0;;;20.45;59.4
61676;BME280;47574;52.090;5.244;2023-05-07T04:38:17;101607.0;;;20.36;59.57
61676;BME280;47574;52.090;5.244;2023-05-07T04:39:53;101608.0;;;20.28;59.69
61676;BME280;47574;52.090;5.244;2023-05-07T04:43:05;101615.0;;;20.32;59.64
61676;BME280;47574;52.090;5.244;2023-05-07T04:44:41;101613.0;;;20.43;59.41
61676;BME280;47574;52.090;5.244;2023-05-07T04:46:19;101611.0;;;20.32;59.47
61676;BME280;47574;52.090;5.244;2023-05-07T04:47:56;101616.0;;;20.27;59.92
61676;BME280;47574;52.090;5.244;2023-05-07T04:51:08;101621.0;;;20.37;59.52
61676;BME280;47574;52.090;5.244;2023-05-07T04:52:44;101613.0;;;20.32;59.79
61676;BME280;47574;52.090;5.244;2023-05-07T04:54:20;101614.0;;;20.38;59.95
61676;BME280;47574;52.090;5.244;2023-05-07T04:57:33;101613.0;;;20.3;59.88
61676;BME280;47574;52.090;5.244;2023-05-07T04:59:10;101619.0;;;20.27;60.17
61676;BME280;47574;52.090;5.244;2023-05-07T05:00:46;101614.0;;;20.25;60.49
61676;BME280;47574;52.090;5.244;2023-05-07T05:03:58;101615.0;;;20.45;59.73
61676;BME280;47574;52.090;5.244;2023-05-07T05:05:34;101617.0;;;20.32;60.22
61676;BME280;47574;52.090;5.244;2023-05-07T05:07:10;101616.0;;;20.39;60.06
61676;BME280;47574;52.090;5.244;2023-05-07T05:08:46;101615.0;;;20.31;60.09
61676;BME280;47574;52.090;5.244;2023-05-07T05:11:59;101620.0;;;20.41;59.78
61676;BME280;47574;52.090;5.244;2023-05-07T05:13:35;101620.0;;;20.39;59.61
61676;BME280;47574;52.090;5.244;2023-05-07T05:15:11;101623.0;;;20.43;59.54
61676;BME280;47574;52.090;5.244;2023-05-07T05:18:24;101623.0;;;20.39;59.68
61676;BME280;47574;52.090;5.244;2023-05-07T05:20:00;101624.0;;;20.56;59.21
61676;BME280;47574;52.090;5.244;2023-05-07T05:21:36;101630.0;;;20.59;59.2
61676;BME280;47574;52.090;5.244;2023-05-07T05:24:49;101627.0;;;20.73;58.5
61676;BME280;47574;52.090;5.244;2023-05-07T05:26:25;101631.0;;;20.59;58.84
61676;BME280;47574;52.090;5.244;2023-05-07T05:28:01;101631.0;;;20.5;59.12
61676;BME280;47574;52.090;5.244;2023-05-07T05:31:13;101636.0;;;20.46;59.36
61676;BME280;47574;52.090;5.244;2023-05-07T05:32:50;101640.0;;;20.41;59.07
61676;BME280;47574;52.090;5.244;2023-05-07T05:34:26;101648.0;;;20.45;59.3
61676;BME280;47574;52.090;5.244;2023-05-07T05:36:02;101652.0;;;20.57;59.08
61676;BME280;47574;52.090;5.244;2023-05-07T05:39:15;101657.0;;;20.58;59.32
61676;BME280;47574;52.090;5.244;2023-05-07T05:40:53;101657.0;;;20.67;59.14
61676;BME280;47574;52.090;5.244;2023-05-07T05:42:29;101655.0;;;20.51;59.2
61676;BME280;47574;52.090;5.244;2023-05-07T05:45:42;101655.0;;;20.43;59.88
61676;BME280;47574;52.090;5.244;2023-05-07T05:47:18;101655.0;;;20.45;59.61
61676;BME280;47574;52.090;5.244;2023-05-07T05:48:54;101658.0;;;20.57;59.36
61676;BME280;47574;52.090;5.244;2023-05-07T05:52:06;101660.0;;;20.43;59.86
61676;BME280;47574;52.090;5.244;2023-05-07T05:53:43;101663.0;;;20.45;59.84
61676;BME280;47574;52.090;5.244;2023-05-07T05:55:19;101661.0;;;20.5;59.91
61676;BME280;47574;52.090;5.244;2023-05-07T05:56:56;101663.0;;;20.43;59.87
61676;BME280;47574;52.090;5.244;2023-05-07T06:00:10;101663.0;;;20.46;59.94
61676;BME280;47574;52.090;5.244;2023-05-07T06:01:46;101662.0;;;20.51;59.71
61676;BME280;47574;52.090;5.244;2023-05-07T06:03:22;101663.0;;;20.36;59.92
61676;BME280;47574;52.090;5.244;2023-05-07T06:06:35;101666.0;;;20.38;59.85
61676;BME280;47574;52.090;5.244;2023-05-07T06:08:11;101665.0;;;20.31;60.07
61676;BME280;47574;52.090;5.244;2023-05-07T06:09:47;101666.0;;;20.37;60.1
61676;BME280;47574;52.090;5.244;2023-05-07T06:12:59;101671.0;;;20.39;60.32
61676;BME280;47574;52.090;5.244;2023-05-07T06:14:35;101667.0;;;20.36;60.11
61676;BME280;47574;52.090;5.244;2023-05-07T06:16:12;101671.0;;;20.36;60.29
61676;BME280;47574;52.090;5.244;2023-05-07T06:19:25;101669.0;;;20.39;60.29
61676;BME280;47574;52.090;5.244;2023-05-07T06:21:01;101667.0;;;20.27;60.78
61676;BME280;47574;52.090;5.244;2023-05-07T06:22:38;101668.0;;;20.52;60.42
61676;BME280;47574;52.090;5.244;2023-05-07T06:24:14;101670.0;;;20.47;60.75
61676;BME280;47574;52.090;5.244;2023-05-07T06:27:27;101676.0;;;20.65;60.08
61676;BME280;47574;52.090;5.244;2023-05-07T06:29:04;101674.0;;;20.56;60.31
61676;BME280;47574;52.090;5.244;2023-05-07T06:30:40;101676.0;;;20.58;60.13
61676;BME280;47574;52.090;5.244;2023-05-07T06:33:54;101672.0;;;20.56;60.45
61676;BME280;47574;52.090;5.244;2023-05-07T06:35:31;101676.0;;;20.55;60.24
61676;BME280;47574;52.090;5.244;2023-05-07T06:37:07;101680.0;;;20.73;60.26
61676;BME280;47574;52.090;5.244;2023-05-07T06:40:19;101682.0;;;20.74;60.04
61676;BME280;47574;52.090;5.244;2023-05-07T06:41:55;101682.0;;;20.83;59.75
61676;BME280;47574;52.090;5.244;2023-05-07T06:43:32;101680.0;;;20.66;60.0
61676;BME280;47574;52.090;5.244;2023-05-07T06:45:09;101685.0;;;20.7;59.94
61676;BME280;47574;52.090;5.244;2023-05-07T06:48:22;101684.0;;;20.83;59.71
61676;BME280;47574;52.090;5.244;2023-05-07T06:49:58;101688.0;;;20.83;59.98
61676;BME280;47574;52.090;5.244;2023-05-07T06:51:34;101690.0;;;20.97;59.81
61676;BME280;47574;52.090;5.244;2023-05-07T06:56:22;101695.0;;;20.87;59.5
61676;BME280;47574;52.090;5.244;2023-05-07T06:57:58;101693.0;;;20.84;59.68
61676;BME280;47574;52.090;5.244;2023-05-07T07:01:12;101696.0;;;20.87;59.67
61676;BME280;47574;52.090;5.244;2023-05-07T07:02:48;101698.0;;;20.97;59.21
61676;BME280;47574;52.090;5.244;2023-05-07T07:04:24;101697.0;;;20.9;59.6
61676;BME280;47574;52.090;5.244;2023-05-07T07:06:00;101695.0;;;21.04;59.5
61676;BME280;47574;52.090;5.244;2023-05-07T07:09:12;101692.0;;;20.91;59.5
61676;BME280;47574;52.090;5.244;2023-05-07T07:10:49;101696.0;;;20.87;59.91
61676;BME280;47574;52.090;5.244;2023-05-07T07:12:25;101694.0;;;20.92;59.69
61676;BME280;47574;52.090;5.244;2023-05-07T07:15:37;101696.0;;;20.95;59.54
61676;BME280;47574;52.090;5.244;2023-05-07T07:17:13;101696.0;;;21.04;59.35
61676;BME280;47574;52.090;5.244;2023-05-07T07:18:50;101696.0;;;21.16;59.12
61676;BME280;47574;52.090;5.244;2023-05-07T07:23:39;101695.0;;;21.06;59.68
61676;BME280;47574;52.090;5.244;2023-05-07T07:25:15;101693.0;;;21.11;59.52
61676;BME280;47574;52.090;5.244;2023-05-07T07:26:52;101691.0;;;21.13;59.74
61676;BME280;47574;52.090;5.244;2023-05-07T07:30:06;101687.0;;;21.11;59.64
61676;BME280;47574;52.090;5.244;2023-05-07T07:31:43;101686.0;;;21.18;59.58
61676;BME280;47574;52.090;5.244;2023-05-07T07:33:19;101688.0;;;21.24;59.75
61676;BME280;47574;52.090;5.244;2023-05-07T07:36:31;101689.0;;;21.35;59.29
61676;BME280;47574;52.090;5.244;2023-05-07T07:38:07;101691.0;;;21.45;59.34
61676;BME280;47574;52.090;5.244;2023-05-07T07:39:43;101694.0;;;21.42;59.4
61676;BME280;47574;52.090;5.244;2023-05-07T07:42:56;101695.0;;;21.37;59.19
61676;BME280;47574;52.090;5.244;2023-05-07T07:44:33;101693.0;;;21.35;59.48
61676;BME280;47574;52.090;5.244;2023-05-07T07:46:10;101691.0;;;21.37;59.78
61676;BME280;47574;52.090;5.244;2023-05-07T07:47:48;101689.0;;;21.47;59.43
61676;BME280;47574;52.090;5.244;2023-05-07T07:51:00;101691.0;;;21.38;59.53
61676;BME280;47574;52.090;5.244;2023-05-07T07:52:37;101695.0;;;21.38;59.43
61676;BME280;47574;52.090;5.244;2023-05-07T07:54:14;101697.0;;;21.46;59.43
61676;BME280;47574;52.090;5.244;2023-05-07T07:57:26;101699.0;;;21.47;59.44
61676;BME280;47574;52.090;5.244;2023-05-07T07:59:03;101702.0;;;21.42;59.45
61676;BME280;47574;52.090;5.244;2023-05-07T08:00:39;101705.0;;;21.46;59.17
61676;BME280;47574;52.090;5.244;2023-05-07T08:03:52;101705.0;;;21.43;59.44
61676;BME280;47574;52.090;5.244;2023-05-07T08:05:29;101702.0;;;21.48;59.66
61676;BME280;47574;52.090;5.244;2023-05-07T08:07:06;101707.0;;;21.55;59.53
61676;BME280;47574;52.090;5.244;2023-05-07T08:08:42;101707.0;;;21.46;60.0
61676;BME280;47574;52.090;5.244;2023-05-07T08:11:56;101706.0;;;21.57;59.82
61676;BME280;47574;52.090;5.244;2023-05-07T08:13:34;101705.0;;;21.62;59.66
61676;BME280;47574;52.090;5.244;2023-05-07T08:15:10;101705.0;;;21.61;59.35
61676;BME280;47574;52.090;5.244;2023-05-07T08:18:23;101701.0;;;21.72;59.46
61676;BME280;47574;52.090;5.244;2023-05-07T08:20:01;101699.0;;;21.75;59.88
61676;BME280;47574;52.090;5.244;2023-05-07T08:21:39;101697.0;;;21.76;59.81
61676;BME280;47574;52.090;5.244;2023-05-07T08:24:51;101695.0;;;21.75;60.11
61676;BME280;47574;52.090;5.244;2023-05-07T08:26:27;101700.0;;;21.9;59.5
61676;BME280;47574;52.090;5.244;2023-05-07T08:28:05;101701.0;;;21.99;59.23
61676;BME280;47574;52.090;5.244;2023-05-07T08:29:41;101700.0;;;21.95;58.68
61676;BME280;47574;52.090;5.244;2023-05-07T08:32:53;101699.0;;;21.85;58.78
61676;BME280;47574;52.090;5.244;2023-05-07T08:34:29;101701.0;;;21.85;58.72
61676;BME280;47574;52.090;5.244;2023-05-07T08:36:06;101700.0;;;21.79;59.03
61676;BME280;47574;52.090;5.244;2023-05-07T08:39:19;101701.0;;;21.76;59.36
61676;BME280;47574;52.090;5.244;2023-05-07T08:40:55;101701.0;;;21.93;58.93
61676;BME280;47574;52.090;5.244;2023-05-07T08:42:35;101705.0;;;21.97;58.94
61676;BME280;47574;52.090;5.244;2023-05-07T08:45:53;101706.0;;;21.9;59.62
61676;BME280;47574;52.090;5.244;2023-05-07T08:47:34;101707.0;;;21.96;59.45
61676;BME280;47574;52.090;5.244;2023-05-07T08:49:15;101713.0;;;21.96;59.61
61676;BME280;47574;52.090;5.244;2023-05-07T08:50:52;101712.0;;;21.95;60.23
61676;BME280;47574;52.090;5.244;2023-05-07T08:54:05;101711.0;;;21.86;60.41
61676;BME280;47574;52.090;5.244;2023-05-07T08:55:44;101713.0;;;22.05;59.21
61676;BME280;47574;52.090;5.244;2023-05-07T08:57:21;101712.0;;;21.94;59.49
61676;BME280;47574;52.090;5.244;2023-05-07T08:58:58;101714.0;;;21.99;59.57
61676;BME280;47574;52.090;5.244;2023-05-07T09:02:13;101713.0;;;21.97;59.87
61676;BME280;47574;52.090;5.244;2023-05-07T09:03:51;101715.0;;;21.96;59.79
61676;BME280;47574;52.090;5.244;2023-05-07T09:05:28;101719.0;;;22.06;59.35
61676;BME280;47574;52.090;5.244;2023-05-07T09:08:40;101715.0;;;22.08;59.29
61676;BME280;47574;52.090;5.244;2023-05-07T09:10:25;101720.0;;;22.19;58.95
61676;BME280;47574;52.090;5.244;2023-05-07T09:12:02;101717.0;;;22.11;59.33
61676;BME280;47574;52.090;5.244;2023-05-07T09:13:39;101719.0;;;22.25;59.5
61676;BME280;47574;52.090;5.244;2023-05-07T09:16:52;101721.0;;;22.43;58.77
61676;BME280;47574;52.090;5.244;2023-05-07T09:18:28;101720.0;;;22.5;58.27
61676;BME280;47574;52.090;5.244;2023-05-07T09:20:06;101720.0;;;22.34;58.61
61676;BME280;47574;52.090;5.244;2023-05-07T09:23:20;101723.0;;;22.41;58.46
61676;BME280;47574;52.090;5.244;2023-05-07T09:24:57;101724.0;;;22.47;58.36
61676;BME280;47574;52.090;5.244;2023-05-07T09:26:33;101726.0;;;22.58;57.87
61676;BME280;47574;52.090;5.244;2023-05-07T09:29:46;101730.0;;;22.49;58.14
61676;BME280;47574;52.090;5.244;2023-05-07T09:31:23;101727.0;;;22.46;58.55
61676;BME280;47574;52.090;5.244;2023-05-07T09:33:01;101725.0;;;22.59;58.3
61676;BME280;47574;52.090;5.244;2023-05-07T09:34:41;101719.0;;;22.77;57.59
61676;BME280;47574;52.090;5.244;2023-05-07T09:37:55;101719.0;;;22.89;57.28
61676;BME280;47574;52.090;5.244;2023-05-07T09:39:41;101717.0;;;22.85;56.73
61676;BME280;47574;52.090;5.244;2023-05-07T09:41:18;101720.0;;;22.94;56.32
61676;BME280;47574;52.090;5.244;2023-05-07T09:42:55;101724.0;;;23.01;56.04
61676;BME280;47574;52.090;5.244;2023-05-07T09:46:12;101725.0;;;22.9;56.54
61676;BME280;47574;52.090;5.244;2023-05-07T09:47:54;101724.0;;;22.79;56.49
61676;BME280;47574;52.090;5.244;2023-05-07T09:49:34;101728.0;;;22.81;56.35
61676;BME280;47574;52.090;5.244;2023-05-07T09:53:05;101730.0;;;22.78;56.23
61676;BME280;47574;52.090;5.244;2023-05-07T09:54:46;101733.0;;;22.85;56.02
61676;BME280;47574;52.090;5.244;2023-05-07T09:56:22;101730.0;;;22.91;56.2
61676;BME280;47574;52.090;5.244;2023-05-07T09:58:01;101731.0;;;22.98;55.55
61676;BME280;47574;52.090;5.244;2023-05-07T09:59:42;101733.0;;;23.02;54.86
61676;BME280;47574;52.090;5.244;2023-05-07T10:02:58;101740.0;;;23.22;54.18
61676;BME280;47574;52.090;5.244;2023-05-07T10:04:35;101737.0;;;23.27;53.88
61676;BME280;47574;52.090;5.244;2023-05-07T10:06:13;101738.0;;;23.4;53.44
61676;BME280;47574;52.090;5.244;2023-05-07T10:09:29;101734.0;;;23.33;52.86
61676;BME280;47574;52.090;5.244;2023-05-07T10:11:06;101734.0;;;23.45;52.91
61676;BME280;47574;52.090;5.244;2023-05-07T10:12:42;101736.0;;;23.38;52.29
61676;BME280;47574;52.090;5.244;2023-05-07T10:14:20;101733.0;;;23.41;52.84
61676;BME280;47574;52.090;5.244;2023-05-07T10:19:12;101731.0;;;23.49;52.29
61676;BME280;47574;52.090;5.244;2023-05-07T10:20:50;101737.0;;;23.52;52.29
61676;BME280;47574;52.090;5.244;2023-05-07T10:24:16;101733.0;;;23.63;52.0
61676;BME280;47574;52.090;5.244;2023-05-07T10:25:55;101731.0;;;23.68;52.12
61676;BME280;47574;52.090;5.244;2023-05-07T10:27:34;101731.0;;;23.49;52.38
61676;BME280;47574;52.090;5.244;2023-05-07T10:29:15;101731.0;;;23.64;51.73
61676;BME280;47574;52.090;5.244;2023-05-07T10:31:18;101733.0;;;23.59;52.44
61676;BME280;47574;52.090;5.244;2023-05-07T10:34:43;101730.0;;;23.67;52.86
61676;BME280;47574;52.090;5.244;2023-05-07T10:36:21;101723.0;;;23.81;52.38
61676;BME280;47574;52.090;5.244;2023-05-07T10:37:59;101724.0;;;23.93;52.04
61676;BME280;47574;52.090;5.244;2023-05-07T10:39:35;101721.0;;;23.9;52.82
61676;BME280;47574;52.090;5.244;2023-05-07T10:42:54;101726.0;;;24.06;52.71
61676;BME280;47574;52.090;5.244;2023-05-07T10:44:30;101730.0;;;24.11;51.63
61676;BME280;47574;52.090;5.244;2023-05-07T10:46:10;101733.0;;;24.13;50.5
61676;BME280;47574;52.090;5.244;2023-05-07T10:48:06;101737.0;;;24.19;49.42
61676;BME280;47574;52.090;5.244;2023-05-07T10:53:27;101734.0;;;23.96;50.34
61676;BME280;47574;52.090;5.244;2023-05-07T10:55:33;101734.0;;;24.29;50.02
61676;BME280;47574;52.090;5.244;2023-05-07T10:57:41;101735.0;;;24.32;49.53
61676;BME280;47574;52.090;5.244;2023-05-07T10:59:31;101734.0;;;24.59;48.79
61676;BME280;47574;52.090;5.244;2023-05-07T11:01:11;101728.0;;;24.49;49.03
61676;BME280;47574;52.090;5.244;2023-05-07T11:03:18;101730.0;;;24.56;48.98
61676;BME280;47574;52.090;5.244;2023-05-07T11:05:19;101730.0;;;24.57;49.6
61676;BME280;47574;52.090;5.244;2023-05-07T11:07:25;101732.0;;;24.74;49.03
61676;BME280;47574;52.090;5.244;2023-05-07T11:09:06;101735.0;;;24.83;49.12
61676;BME280;47574;52.090;5.244;2023-05-07T11:10:58;101736.0;;;25.07;49.03
61676;BME280;47574;52.090;5.244;2023-05-07T11:14:44;101738.0;;;25.06;48.83
61676;BME280;47574;52.090;5.244;2023-05-07T11:16:23;101738.0;;;25.0;48.51
61676;BME280;47574;52.090;5.244;2023-05-07T11:18:00;101736.0;;;24.92;48.76
61676;BME280;47574;52.090;5.244;2023-05-07T11:19:53;101741.0;;;24.94;49.11